Time;durP1;ratioP1;P1;durP2;ratioP2;P2;SDS_P1;SDS_P2;PMS_P1;PMS_P2;Temp;Humidity;BMP_temperature;BMP_pressure;BME280_temperature;BME280_humidity;BME280_pressure;Samples;Min_cycle;Max_cycle;Signal;HPM_P1;HPM_P2
2022/06/18 00:01:39;;;;;;;0.80;0.80;;;25.40;42.20;;;29.34;27.27;101439.25;5114131;28;20059;-12
2022/06/18 00:04:17;;;;;;;1.10;1.10;;;25.40;42.20;;;29.28;27.32;101423.63;5115132;28;20040;-12
2022/06/18 00:07:00;;;;;;;0.80;0.80;;;25.40;42.30;;;29.28;27.50;101418.25;5097271;28;20039;-12
2022/06/18 00:09:34;;;;;;;0.90;0.90;;;25.40;42.30;;;29.27;27.59;101416.56;5111375;28;20097;-12
2022/06/18 00:15:21;;;;;;;1.00;0.82;;;25.40;42.30;;;29.33;27.38;101420.53;5099435;28;20092;-12
2022/06/18 00:17:48;;;;;;;0.82;0.82;;;25.40;42.30;;;29.32;27.51;101421.50;5114537;28;20047;-13
2022/06/18 00:20:16;;;;;;;0.80;0.80;;;25.40;42.30;;;29.26;27.34;101412.16;5114871;28;20056;-12
2022/06/18 00:22:46;;;;;;;0.90;0.90;;;25.40;42.30;;;29.24;27.42;101411.44;5115336;28;20051;-12
2022/06/18 00:25:20;;;;;;;0.80;0.80;;;25.40;42.30;;;29.26;27.40;101412.16;5114915;28;20518;-12
2022/06/18 00:27:46;;;;;;;1.02;0.90;;;25.40;42.30;;;29.29;27.50;101411.88;5115285;28;20134;-13
2022/06/18 00:30:19;;;;;;;0.80;0.80;;;25.40;42.30;;;29.29;27.38;101416.44;5115402;28;20043;-12
2022/06/18 00:32:45;;;;;;;1.05;0.95;;;25.40;42.30;;;29.28;27.45;101410.16;5094679;28;20060;-12
2022/06/18 00:35:12;;;;;;;0.90;0.90;;;25.40;42.40;;;29.29;27.34;101402.97;5114603;28;20058;-12
2022/06/18 00:37:39;;;;;;;0.73;0.73;;;25.40;42.30;;;29.27;27.67;101403.09;5114396;28;20567;-12
2022/06/18 00:40:16;;;;;;;0.90;0.90;;;25.40;42.40;;;29.26;27.47;101395.16;5114677;28;20406;-12
2022/06/18 00:42:43;;;;;;;0.90;0.90;;;25.40;42.40;;;29.21;27.59;101379.41;5113297;28;20101;-12
2022/06/18 00:45:14;;;;;;;0.90;0.90;;;25.40;42.40;;;29.27;27.42;101394.13;5114697;28;20040;-12
2022/06/18 00:48:06;;;;;;;0.88;0.88;;;25.40;42.40;;;29.26;27.54;101384.38;5096790;28;20050;-12
2022/06/18 00:50:46;;;;;;;0.75;0.75;;;25.40;42.40;;;29.25;27.43;101386.19;5114242;28;20046;-12
2022/06/18 00:53:35;;;;;;;0.90;0.90;;;25.40;42.40;;;29.22;27.60;101374.84;5114326;28;20052;-12
2022/06/18 00:56:06;;;;;;;0.95;0.95;;;25.40;42.40;;;29.23;27.43;101372.03;5113493;28;20086;-12
2022/06/18 00:59:01;;;;;;;0.93;0.93;;;25.40;42.40;;;29.25;27.51;101371.88;5096248;28;20523;-12
2022/06/18 01:01:34;;;;;;;0.90;0.90;;;25.40;42.40;;;29.24;27.51;101371.03;5094607;28;20056;-12
2022/06/18 01:04:01;;;;;;;1.10;1.00;;;25.40;42.40;;;29.18;27.57;101350.03;5113028;28;20067;-12
2022/06/18 01:06:32;;;;;;;0.82;0.82;;;25.40;42.40;;;29.23;27.39;101355.03;5114083;28;20043;-12
2022/06/18 01:09:06;;;;;;;0.80;0.80;;;25.40;42.40;;;29.23;27.51;101358.56;5095080;28;20059;-11
2022/06/18 01:11:38;;;;;;;0.80;0.80;;;25.40;42.40;;;29.16;27.47;101338.53;5093644;28;20134;-12
2022/06/18 01:14:08;;;;;;;0.80;0.80;;;25.40;42.40;;;29.22;27.61;101351.50;5096135;28;20047;-12
2022/06/18 01:16:36;;;;;;;1.05;1.05;;;25.40;42.40;;;29.25;27.62;101355.72;5113094;28;20035;-12
2022/06/18 01:19:09;;;;;;;0.80;0.80;;;25.30;42.40;;;29.23;27.51;101355.88;5079151;28;20139;-12
2022/06/18 01:21:44;;;;;;;0.95;0.95;;;25.40;42.40;;;29.19;27.45;101346.38;5079342;28;20046;-12
2022/06/18 01:24:17;;;;;;;1.10;1.00;;;25.40;42.40;;;29.22;27.58;101342.53;5095716;28;20099;-12
2022/06/18 01:26:47;;;;;;;0.60;0.60;;;25.40;42.40;;;29.20;27.61;101337.28;5095540;28;20166;-12
2022/06/18 01:29:14;;;;;;;1.10;1.10;;;25.40;42.40;;;29.16;27.54;101325.06;5078577;28;20047;-12
2022/06/18 01:31:42;;;;;;;1.10;1.10;;;25.30;42.30;;;29.19;27.38;101330.22;5112282;28;20047;-12
2022/06/18 01:34:09;;;;;;;0.85;0.85;;;25.30;42.40;;;29.22;27.65;101338.03;5095452;28;20074;-12
2022/06/18 01:36:39;;;;;;;1.10;1.10;;;25.30;42.40;;;29.22;27.41;101329.06;5078997;28;20108;-12
2022/06/18 01:39:10;;;;;;;1.10;1.10;;;25.30;42.30;;;29.17;27.62;101324.97;5078360;28;20036;-12
2022/06/18 01:41:52;;;;;;;;;;;25.30;42.40;;;29.34;27.39;101312.66;5078768;28;20104;-12
2022/06/18 01:44:38;;;;;;;1.10;1.10;;;25.30;42.40;;;29.24;27.26;101313.66;5079993;28;19916;-12
2022/06/18 01:47:18;;;;;;;0.95;0.95;;;25.30;42.30;;;29.21;27.27;101306.69;5095507;28;20410;-12
2022/06/18 01:49:53;;;;;;;0.90;0.90;;;25.30;42.30;;;29.21;27.54;101303.16;5095219;28;20062;-12
2022/06/18 01:52:28;;;;;;;0.90;0.90;;;25.30;42.40;;;29.21;27.65;101303.16;5095902;28;20047;-12
2022/06/18 01:55:10;;;;;;;1.15;0.90;;;25.30;42.40;;;29.21;27.63;101295.91;5095422;28;20043;-12
2022/06/18 01:57:43;;;;;;;1.23;1.13;;;25.40;42.40;;;29.21;27.44;101293.22;5078154;28;20487;-12
2022/06/18 02:00:17;;;;;;;0.95;0.95;;;25.30;42.40;;;29.22;27.42;101299.44;5093872;28;20048;-12
2022/06/18 02:02:51;;;;;;;0.80;0.80;;;25.30;42.40;;;29.22;27.37;101291.38;5095558;28;20366;-12
2022/06/18 02:05:19;;;;;;;1.10;1.10;;;25.30;42.40;;;29.22;27.42;101288.69;5093724;28;20055;-12
2022/06/18 02:07:47;;;;;;;0.95;0.95;;;25.30;42.40;;;29.20;27.40;101280.72;5112974;28;20056;-12
2022/06/18 02:10:42;;;;;;;0.90;0.90;;;25.30;42.40;;;29.19;27.73;101285.28;5110595;28;20100;-12
2022/06/18 02:13:08;;;;;;;0.95;0.95;;;25.30;42.40;;;29.20;27.64;101278.03;5076438;28;20056;-12
2022/06/18 02:15:40;;;;;;;1.02;1.02;;;25.30;42.40;;;29.16;27.48;101268.53;5110411;28;20043;-12
2022/06/18 02:18:10;;;;;;;1.27;1.17;;;25.30;42.40;;;29.19;27.44;101268.28;5110786;28;20059;-12
2022/06/18 02:20:43;;;;;;;0.90;0.90;;;25.30;42.40;;;29.15;27.66;101264.13;5112826;28;20051;-12
2022/06/18 02:23:09;;;;;;;0.98;0.98;;;25.30;42.40;;;29.21;27.55;101262.75;5076383;28;20517;-12
2022/06/18 02:25:36;;;;;;;1.10;1.00;;;25.20;42.30;;;29.20;27.57;101269.97;5093042;28;20056;-12
2022/06/18 02:28:21;;;;;;;0.90;0.90;;;25.30;42.50;;;29.12;27.44;101257.19;5094362;28;20055;-12
2022/06/18 02:30:47;;;;;;;0.85;0.85;;;25.30;42.70;;;29.21;27.57;101260.06;5094795;28;20096;-12
2022/06/18 02:33:17;;;;;;;0.80;0.80;;;25.30;42.40;;;29.19;27.63;101257.50;5113540;28;20048;-11
2022/06/18 02:35:44;;;;;;;0.80;0.80;;;25.30;42.40;;;29.21;27.39;101249.28;5112046;28;20460;-12
2022/06/18 02:38:22;;;;;;;0.90;0.90;;;25.30;42.50;;;29.14;27.48;101247.13;5112922;28;20048;-11
2022/06/18 02:40:49;;;;;;;0.90;0.90;;;25.30;42.50;;;29.20;27.40;101251.13;5094528;28;20044;-12
2022/06/18 02:43:19;;;;;;;0.80;0.80;;;25.30;42.40;;;29.13;27.48;101247.25;5112005;28;20051;-12
2022/06/18 02:45:52;;;;;;;0.80;0.80;;;25.30;42.50;;;29.13;27.43;101234.63;5112015;28;20083;-13
2022/06/18 02:48:26;;;;;;;1.40;1.02;;;25.30;42.50;;;29.14;27.48;101236.34;5113274;28;20048;-13
2022/06/18 02:50:55;;;;;;;0.80;0.80;;;25.30;42.50;;;29.17;27.73;101237.94;5092842;28;20044;-12
2022/06/18 02:53:22;;;;;;;0.73;0.73;;;25.20;42.40;;;29.13;27.68;101231.94;5109870;28;20068;-12
2022/06/18 02:55:52;;;;;;;0.82;0.82;;;25.30;42.50;;;29.18;27.56;101239.63;5094251;28;20042;-13
2022/06/18 02:58:31;;;;;;;0.80;0.80;;;25.30;42.50;;;29.14;27.47;101230.13;5094239;28;20047;-12
2022/06/18 03:01:04;;;;;;;0.95;0.95;;;25.30;42.50;;;29.17;27.41;101233.41;5111647;28;20047;-12
2022/06/18 03:03:35;;;;;;;0.90;0.90;;;25.20;42.40;;;29.17;27.62;101232.56;5094725;28;20392;-12
2022/06/18 03:06:02;;;;;;;0.90;0.90;;;25.30;42.50;;;29.13;27.49;101220.31;5094123;28;20042;-12
2022/06/18 03:08:30;;;;;;;0.70;0.70;;;25.30;42.50;;;29.12;27.67;101230.25;5094413;28;20047;-12
2022/06/18 03:13:42;;;;;;;1.20;1.17;;;25.30;42.50;;;29.12;27.69;101222.19;5111237;28;20097;-12
2022/06/18 03:16:13;;;;;;;1.00;1.00;;;25.30;42.50;;;29.12;27.61;101224.88;5111410;28;20043;-12
2022/06/18 03:18:41;;;;;;;1.17;1.08;;;25.30;42.50;;;29.16;27.48;101226.28;5094305;28;20040;-13
2022/06/18 03:21:26;;;;;;;0.88;0.88;;;25.30;42.50;;;29.11;27.58;101216.94;5094013;28;20048;-12
2022/06/18 03:23:53;;;;;;;0.90;0.90;;;25.30;42.50;;;29.11;27.40;101214.25;5093760;28;20047;-12
2022/06/18 03:26:19;;;;;;;0.93;0.93;;;25.30;42.40;;;29.14;27.54;101219.34;5080270;28;20059;-12
2022/06/18 03:28:51;;;;;;;1.10;1.00;;;25.30;42.40;;;29.15;27.83;101221.03;5096767;28;20479;-12
2022/06/18 03:31:17;;;;;;;1.00;1.00;;;25.30;42.40;;;29.16;27.63;101225.44;5113225;28;20048;-12
2022/06/18 03:33:43;;;;;;;0.80;0.80;;;25.30;42.30;;;29.14;27.34;101219.34;5097354;28;20051;-12
2022/06/18 03:36:11;;;;;;;0.90;0.90;;;25.30;42.30;;;29.11;27.62;101204.31;5097287;28;20092;-13
2022/06/18 03:38:38;;;;;;;0.70;0.70;;;25.30;42.30;;;29.19;27.76;101214.41;5096874;28;20464;-12
2022/06/18 03:41:08;;;;;;;0.90;0.90;;;25.30;42.30;;;29.17;27.64;101214.56;5097126;28;20051;-12
2022/06/18 03:43:34;;;;;;;0.82;0.82;;;25.40;42.30;;;29.16;27.44;101207.44;5097165;28;20055;-12
2022/06/18 03:46:07;;;;;;;1.10;1.00;;;25.40;42.30;;;29.22;27.39;101211.44;5097178;28;20500;-12
2022/06/18 03:48:58;;;;;;;1.05;1.05;;;25.40;42.30;;;29.18;27.48;101208.16;5115795;28;20082;-12
2022/06/18 03:51:29;;;;;;;1.00;1.00;;;25.40;42.20;;;29.25;27.55;101207.59;5097056;28;20067;-12
2022/06/18 03:53:57;;;;;;;0.80;0.80;;;25.50;42.20;;;29.29;27.63;101223.34;5115639;28;20126;-12
2022/06/18 03:56:28;;;;;;;0.80;0.80;;;25.50;42.20;;;29.31;27.38;101218.66;5097375;28;20048;-13
2022/06/18 03:58:54;;;;;;;0.90;0.90;;;25.50;42.10;;;29.34;27.34;101220.25;5097262;28;20377;-12
2022/06/18 04:01:28;;;;;;;0.82;0.82;;;25.50;42.10;;;29.34;27.36;101221.09;5097368;28;20086;-13
2022/06/18 04:03:53;;;;;;;0.90;0.90;;;25.60;42.10;;;29.40;27.34;101226.88;5115771;28;20051;-12
2022/06/18 04:06:39;;;;;;;0.80;0.80;;;25.60;42.10;;;29.41;27.47;101225.91;5096126;28;20052;-12
2022/06/18 04:09:25;;;;;;;0.90;0.90;;;25.60;42.00;;;29.44;27.34;101215.69;5115028;28;20063;-12
2022/06/18 04:11:52;;;;;;;0.90;0.90;;;25.60;41.90;;;29.49;27.29;101224.19;5095634;28;20044;-12
2022/06/18 04:14:18;;;;;;;0.90;0.90;;;25.70;41.90;;;29.49;27.29;101221.50;5096676;28;20047;-12
2022/06/18 04:17:15;;;;;;;0.75;0.75;;;25.70;41.80;;;29.54;27.29;101219.22;5101965;28;20100;-12
2022/06/18 04:19:42;;;;;;;1.00;1.00;;;25.80;41.80;;;29.56;27.18;101225.31;5114901;28;20044;-12
2022/06/18 04:22:09;;;;;;;0.70;0.70;;;25.80;41.80;;;29.56;27.22;101216.41;5096540;28;20079;-12
2022/06/18 04:24:43;;;;;;;1.15;1.08;;;25.90;41.70;;;29.63;27.24;101220.19;5097091;28;20522;-12
2022/06/18 04:27:09;;;;;;;0.95;0.95;;;25.90;41.60;;;29.60;27.20;101215.09;5080207;28;20046;-12
2022/06/18 04:29:36;;;;;;;0.90;0.90;;;26.00;41.60;;;29.66;27.15;101213.69;5096357;28;20048;-12
2022/06/18 04:32:04;;;;;;;0.80;0.80;;;26.00;41.40;;;29.72;27.12;101223.88;5096629;28;20479;-12
2022/06/18 04:34:30;;;;;;;1.05;0.90;;;26.10;41.40;;;29.73;27.11;101221.03;5096870;28;20066;-12
2022/06/18 04:37:15;;;;;;;1.45;0.90;;;26.10;41.30;;;29.79;27.06;101225.06;5113690;28;20157;-12
2022/06/18 04:39:59;;;;;;;0.93;0.80;;;26.20;41.30;;;29.80;26.91;101217.81;5112518;28;20048;-12
2022/06/18 04:42:34;;;;;;;0.90;0.90;;;26.20;41.20;;;29.82;27.17;101216.69;5111457;28;20054;-12
2022/06/18 04:45:00;;;;;;;1.00;1.00;;;26.30;41.20;;;29.86;27.05;101219.94;5095911;28;20146;-12
2022/06/18 04:47:52;;;;;;;0.80;0.80;;;26.30;41.10;;;29.89;27.02;101214.25;5111229;28;20054;-12
2022/06/18 04:50:22;;;;;;;0.80;0.80;;;26.40;41.20;;;29.89;26.96;101214.25;5096151;28;20059;-12
2022/06/18 04:52:48;;;;;;;0.98;0.98;;;26.40;41.10;;;29.96;26.95;101220.75;5095723;28;20057;-12
2022/06/18 04:55:14;;;;;;;0.85;0.85;;;26.40;41.10;;;29.98;26.89;101218.75;5112729;28;20044;-12
2022/06/18 04:57:41;;;;;;;1.00;0.90;;;26.40;41.10;;;30.00;27.00;101227.53;5094602;28;20400;-12
2022/06/18 05:00:09;;;;;;;0.80;0.80;;;26.40;41.10;;;30.06;26.81;101235.03;5113056;28;20086;-12
2022/06/18 05:02:55;;;;;;;0.90;0.90;;;26.40;41.10;;;30.11;26.63;101251.63;5114392;28;20052;-12
2022/06/18 05:05:32;;;;;;;0.90;0.90;;;26.40;41.10;;;30.10;26.76;101238.28;5096471;28;20063;-12
2022/06/18 05:08:18;;;;;;;0.85;0.85;;;26.50;41.10;;;30.07;26.76;101228.66;5113993;28;20050;-12
2022/06/18 05:11:07;;;;;;;0.90;0.90;;;26.50;41.10;;;30.20;26.79;101240.97;5108107;28;20475;-12
2022/06/18 05:13:59;;;;;;;0.70;0.70;;;26.50;41.00;;;30.21;26.61;101231.88;5112313;28;20043;-12
2022/06/18 05:16:40;;;;;;;0.90;0.90;;;26.50;41.00;;;30.21;26.72;101223.81;5092063;28;20052;-12
2022/06/18 05:19:22;;;;;;;0.85;0.85;;;26.50;40.90;;;30.25;26.66;101236.81;5095747;28;20059;-12
2022/06/18 05:21:48;;;;;;;1.00;1.00;;;26.60;40.90;;;30.30;26.61;101231.00;5112866;28;20051;-12
2022/06/18 05:24:14;;;;;;;0.90;0.90;;;26.60;40.90;;;30.27;26.58;101221.34;5112460;28;20048;-12
2022/06/18 05:26:45;;;;;;;0.82;0.82;;;26.70;40.90;;;30.30;26.50;101226.47;5095668;28;20039;-12
2022/06/18 05:29:11;;;;;;;0.93;0.93;;;26.60;40.90;;;30.38;26.59;101224.91;5110301;28;20076;-12
2022/06/18 05:31:37;;;;;;;0.80;0.80;;;26.70;40.90;;;30.35;26.51;101214.38;5095633;28;20079;-12
2022/06/18 05:34:03;;;;;;;0.90;0.90;;;26.70;40.80;;;30.41;26.46;101217.34;5095441;28;20474;-12
2022/06/18 05:36:30;;;;;;;0.80;0.80;;;26.70;40.70;;;30.41;26.41;101209.25;5095701;28;20101;-12
2022/06/18 05:39:00;;;;;;;0.90;0.90;;;26.80;40.70;;;30.47;26.49;101203.28;5112243;28;20051;-12
2022/06/18 05:41:27;;;;;;;0.70;0.70;;;26.80;40.60;;;30.48;26.42;101204.09;5112273;28;20556;-12
2022/06/18 05:43:53;;;;;;;0.90;0.90;;;26.80;40.60;;;30.48;26.39;101193.31;5113600;28;20051;-12
2022/06/18 05:46:19;;;;;;;0.80;0.80;;;26.90;40.60;;;30.54;26.25;101183.75;5113507;28;20046;-12
2022/06/18 05:48:46;;;;;;;0.77;0.77;;;26.90;40.50;;;30.60;26.35;101186.69;5093354;28;20067;-12
2022/06/18 05:51:12;;;;;;;0.90;0.90;;;26.90;40.40;;;30.62;26.27;101192.81;5095040;28;20039;-12
2022/06/18 05:53:38;;;;;;;1.00;1.00;;;27.00;40.40;;;30.66;26.14;101191.50;5112069;28;20051;-12
2022/06/18 05:56:22;;;;;;;0.70;0.70;;;27.00;40.40;;;30.65;26.14;101178.16;5113807;28;20100;-12
2022/06/18 05:59:05;;;;;;;0.80;0.80;;;27.10;40.40;;;30.72;26.18;101200.00;5093827;28;20052;-12
2022/06/18 06:01:36;;;;;;;0.80;0.80;;;27.10;40.40;;;30.75;26.22;101195.13;5095008;28;20083;-12
2022/06/18 06:04:03;;;;;;;0.90;0.90;;;27.10;40.30;;;30.74;26.16;101193.47;5094860;28;20039;-12
2022/06/18 06:06:30;;;;;;;0.70;0.70;;;27.10;40.20;;;30.75;26.17;101187.03;5095578;28;20051;-12
2022/06/18 06:08:56;;;;;;;0.75;0.75;;;27.10;40.20;;;30.79;26.03;101199.25;5113269;28;20047;-12
2022/06/18 06:11:30;;;;;;;0.80;0.80;;;27.20;40.20;;;30.82;26.05;101189.97;5095110;28;20058;-12
2022/06/18 06:14:08;;;;;;;0.80;0.80;;;27.20;40.20;;;30.89;26.01;101207.28;5111645;28;20044;-12
2022/06/18 06:16:34;;;;;;;0.73;0.73;;;27.20;40.20;;;30.89;25.90;101199.19;5113102;28;20097;-12
2022/06/18 06:19:02;;;;;;;0.80;0.80;;;27.20;40.20;;;30.88;26.01;101197.47;5094842;28;20044;-12
2022/06/18 06:21:28;;;;;;;0.88;0.88;;;27.30;40.20;;;30.96;26.08;101197.59;5112910;28;20495;-12
2022/06/18 06:23:54;;;;;;;0.77;0.77;;;27.30;40.10;;;30.95;25.68;101195.88;5095034;28;20055;-12
2022/06/18 06:26:25;;;;;;;0.90;0.90;;;27.30;40.10;;;31.02;25.68;101193.41;5113110;28;20134;-12
2022/06/18 06:28:51;;;;;;;0.90;0.90;;;27.30;40.10;;;31.06;25.70;101199.34;5113378;28;20075;-12
2022/06/18 06:31:18;;;;;;;1.15;1.05;;;27.40;40.10;;;31.03;25.88;101197.81;5112786;28;20050;-12
2022/06/18 06:33:44;;;;;;;0.95;0.95;;;27.40;40.00;;;31.06;25.79;101197.53;5112952;28;20079;-12
2022/06/18 06:36:11;;;;;;;0.80;0.80;;;27.40;40.00;;;31.09;25.64;101194.53;5112911;28;20169;-12
2022/06/18 06:38:39;;;;;;;0.77;0.77;;;27.50;40.00;;;31.12;25.54;101196.88;5112776;28;20047;-12
2022/06/18 06:41:12;;;;;;;1.00;0.90;;;27.50;39.90;;;31.13;25.54;101198.59;5112675;28;20479;-12
2022/06/18 06:43:37;;;;;;;0.80;0.80;;;27.50;39.90;;;31.19;25.74;101203.38;5093458;28;20472;-12
2022/06/18 06:46:03;;;;;;;0.88;0.88;;;27.50;39.90;;;31.20;25.51;101186.16;5113309;28;20051;-12
2022/06/18 06:48:29;;;;;;;0.90;0.90;;;27.50;39.80;;;31.24;25.55;101197.53;5112767;28;20875;-12
2022/06/18 06:50:55;;;;;;;0.90;0.90;;;27.50;39.80;;;31.29;25.58;101197.03;5112797;28;20142;-12
2022/06/18 06:53:22;;;;;;;0.88;0.88;;;27.50;39.80;;;31.29;25.52;101199.75;5112767;28;20047;-12
2022/06/18 06:58:33;;;;;;;0.90;0.90;;;27.60;39.80;;;31.31;25.66;101195.06;5112894;28;20502;-12
2022/06/18 07:00:59;;;;;;;0.82;0.82;;;27.60;39.70;;;31.34;25.43;101192.00;5114956;28;20566;-12
2022/06/18 07:03:32;;;;;;;0.80;0.80;;;27.60;39.80;;;31.36;25.77;101196.28;5097822;28;20047;-12
2022/06/18 07:06:01;;;;;;;0.80;0.80;;;27.60;39.70;;;31.34;25.42;101195.59;5116390;28;20070;-12
2022/06/18 07:08:30;;;;;;;0.80;0.80;;;27.60;39.70;;;31.41;25.57;101203.91;5116702;28;20455;-12
2022/06/18 07:10:57;;;;;;;0.80;0.80;;;27.70;39.80;;;31.44;25.37;101213.53;5115994;28;20044;-12
2022/06/18 07:13:24;;;;;;;0.70;0.70;;;27.70;39.70;;;31.45;25.38;101213.41;5116265;28;20435;-12
2022/06/18 07:15:51;;;;;;;0.90;0.90;;;27.70;39.70;;;31.43;25.31;101209.16;5115934;28;20084;-11
2022/06/18 07:18:23;;;;;;;1.00;1.00;;;27.70;39.70;;;31.44;25.32;101217.13;5081608;28;20054;-12
2022/06/18 07:20:49;;;;;;;0.88;0.88;;;27.70;39.70;;;31.48;25.27;101220.34;5115831;28;20093;-13
2022/06/18 07:23:16;;;;;;;0.90;0.90;;;27.70;39.70;;;31.47;25.23;101219.47;5116035;28;20048;-13
2022/06/18 07:25:42;;;;;;;0.80;0.80;;;27.70;39.70;;;31.50;25.27;101210.22;5115918;28;20081;-13
2022/06/18 07:28:09;;;;;;;0.80;0.80;;;27.80;39.70;;;31.55;25.24;101226.84;5115182;28;20107;-13
2022/06/18 07:30:36;;;;;;;0.80;0.80;;;27.80;39.70;;;31.51;25.08;101212.81;5115969;28;20062;-13
2022/06/18 07:33:03;;;;;;;0.80;0.80;;;27.80;39.60;;;31.57;25.47;101222.13;5095305;28;20052;-13
2022/06/18 07:35:31;;;;;;;0.80;0.80;;;27.80;39.60;;;31.60;25.20;101220.97;5115363;28;20058;-13
2022/06/18 07:37:57;;;;;;;0.95;0.95;;;27.80;39.60;;;31.61;25.23;101222.66;5115496;28;20048;-13
2022/06/18 07:40:24;;;;;;;0.80;0.80;;;27.80;39.70;;;31.59;25.50;101214.72;5115273;28;20051;-13
2022/06/18 07:42:53;;;;;;;0.90;0.90;;;27.80;39.70;;;31.62;25.38;101221.66;5115527;28;20047;-13
2022/06/18 07:45:23;;;;;;;0.90;0.90;;;27.80;39.70;;;31.56;25.13;101210.47;5114724;28;20074;-13
2022/06/18 07:47:50;;;;;;;0.80;0.80;;;27.80;39.60;;;31.60;25.35;101215.56;5115547;28;20091;-13
2022/06/18 07:50:19;;;;;;;0.80;0.80;;;27.80;39.70;;;31.63;25.05;101209.88;5115386;28;20044;-13
2022/06/18 07:52:46;;;;;;;0.75;0.75;;;27.80;39.70;;;31.62;25.21;101214.41;5114843;28;20055;-13
2022/06/18 07:55:23;;;;;;;0.80;0.80;;;27.80;39.70;;;31.63;25.36;101213.41;5115079;28;20056;-13
2022/06/18 07:57:50;;;;;;;0.85;0.85;;;27.80;39.60;;;31.66;24.90;101217.63;5115106;28;20052;-11
2022/06/18 08:00:19;;;;;;;1.05;1.05;;;27.80;39.60;;;31.61;25.07;101207.31;5114833;28;20048;-11
2022/06/18 08:02:47;;;;;;;0.90;0.90;;;27.80;39.70;;;31.62;25.01;101209.00;5115484;28;20079;-13
2022/06/18 08:05:24;;;;;;;0.80;0.80;;;27.80;39.80;;;31.57;25.32;101200.50;5115540;28;20067;-12
2022/06/18 08:07:50;;;;;;;0.80;0.80;;;27.80;39.80;;;31.60;25.35;101204.75;5115547;28;20043;-11
2022/06/18 08:10:17;;;;;;;0.90;0.90;;;27.70;39.80;;;31.61;25.31;101219.97;5115005;28;20085;-11
2022/06/18 08:12:43;;;;;;;0.70;0.70;;;27.70;39.80;;;31.63;24.97;101220.69;5114907;28;20047;-11
2022/06/18 08:15:10;;;;;;;0.70;0.70;;;27.70;39.80;;;31.59;25.30;101212.00;5115435;28;20043;-11
2022/06/18 08:17:36;;;;;;;0.70;0.70;;;27.70;39.80;;;31.60;25.22;101202.06;5114972;28;20043;-11
2022/06/18 08:20:05;;;;;;;0.90;0.90;;;27.70;39.80;;;31.56;24.88;101207.78;5114850;28;20056;-11
2022/06/18 08:22:32;;;;;;;1.42;1.10;;;27.70;39.80;;;31.60;25.17;101212.88;5114711;28;20592;-11
2022/06/18 08:24:59;;;;;;;0.90;0.90;;;27.70;39.80;;;31.58;25.07;101207.63;5096666;28;20446;-11
2022/06/18 08:27:25;;;;;;;1.05;0.98;;;27.70;39.90;;;31.54;25.28;101208.94;5096585;28;20044;-11
2022/06/18 08:29:51;;;;;;;0.80;0.80;;;27.70;39.90;;;31.56;25.39;101224.00;5096730;28;20487;-11
2022/06/18 08:32:16;;;;;;;0.90;0.90;;;27.60;39.90;;;31.55;24.93;101218.75;5114745;28;20122;-12
2022/06/18 08:34:42;;;;;;;0.77;0.77;;;27.60;40.00;;;31.49;25.17;101216.63;5114702;28;20047;-11
2022/06/18 08:37:09;;;;;;;1.08;1.08;;;27.60;40.00;;;31.50;25.06;101219.19;5114691;28;20039;-12
2022/06/18 08:39:38;;;;;;;0.80;0.80;;;27.60;40.10;;;31.52;25.25;101216.34;5114495;28;20079;-12
2022/06/18 08:42:06;;;;;;;0.75;0.75;;;27.50;40.00;;;31.50;25.20;101211.06;5096365;28;20467;-12
2022/06/18 08:44:52;;;;;;;0.90;0.90;;;27.50;40.10;;;31.40;25.57;101205.75;5114530;28;20135;-12
2022/06/18 08:47:38;;;;;;;0.80;0.80;;;27.50;40.20;;;31.40;25.39;101205.75;5114508;28;20069;-12
2022/06/18 08:50:29;;;;;;;0.70;0.70;;;27.50;40.20;;;31.40;25.28;101219.25;5096288;28;20085;-12
2022/06/18 08:53:38;;;;;;;0.75;0.75;;;27.40;40.20;;;31.45;25.48;101228.78;5114249;28;20059;-11
2022/06/18 08:56:31;;;;;;;0.80;0.80;;;27.40;40.20;;;31.36;25.30;101219.75;5095073;28;20072;-12
2022/06/18 08:59:04;;;;;;;0.80;0.80;;;27.40;40.40;;;31.37;25.42;101234.94;5095937;28;20055;-12
2022/06/18 09:01:37;;;;;;;0.80;0.80;;;27.30;40.30;;;31.30;25.42;101234.72;5114319;28;20044;-12
2022/06/18 09:04:25;;;;;;;0.77;0.77;;;27.30;40.40;;;31.33;25.44;101242.50;5114238;28;20122;-11
2022/06/18 09:07:36;;;;;;;0.80;0.80;;;27.30;40.40;;;31.26;25.41;101237.88;5095929;28;20043;-12
2022/06/18 09:10:28;;;;;;;0.73;0.73;;;27.30;40.50;;;31.30;25.45;101255.47;5083210;28;20047;-12
2022/06/18 09:13:18;;;;;;;0.73;0.73;;;27.20;40.40;;;31.24;25.55;101251.56;5113840;28;20301;-12
2022/06/18 09:15:51;;;;;;;0.85;0.85;;;27.20;40.50;;;31.24;25.57;101254.25;5112750;28;20184;-12
2022/06/18 09:18:34;;;;;;;0.95;0.95;;;27.20;40.50;;;31.21;25.77;101257.25;5110909;28;20044;-12
2022/06/18 09:21:09;;;;;;;0.90;0.90;;;27.20;40.60;;;31.18;25.70;101249.47;5095865;28;20479;-11
2022/06/18 09:23:57;;;;;;;1.40;0.90;;;27.20;40.70;;;31.11;25.62;101240.28;5095025;28;20469;-12
2022/06/18 09:26:39;;;;;;;0.90;0.90;;;27.10;40.60;;;31.10;25.72;101239.41;5114308;28;20040;-11
2022/06/18 09:29:22;;;;;;;0.88;0.88;;;27.10;40.70;;;31.09;25.99;101247.66;5113734;28;20130;-11
2022/06/18 09:32:06;;;;;;;1.08;0.98;;;27.10;40.80;;;31.08;25.81;101254.09;5112536;28;20130;-12
2022/06/18 09:34:57;;;;;;;0.85;0.85;;;27.10;40.80;;;31.08;25.76;101254.94;5113826;28;20454;-12
2022/06/18 09:37:47;;;;;;;0.88;0.88;;;27.10;40.90;;;31.00;25.91;101252.97;5113416;28;20058;-12
2022/06/18 09:40:28;;;;;;;0.90;0.90;;;27.10;41.40;;;31.01;25.95;101262.78;5095366;28;20506;-12
2022/06/18 09:43:01;;;;;;;;;;;27.00;40.90;;;31.18;25.60;101262.97;5113763;28;20055;-12
2022/06/18 09:45:31;;;;;;;;;;;27.00;40.90;;;31.18;25.61;101257.56;5094784;28;19915;-11
2022/06/18 09:47:57;;;;;;;;;;;27.00;40.90;;;31.25;25.62;101260.50;5113674;28;19915;-12
2022/06/18 09:50:27;;;;;;;;;;;27.00;40.90;;;31.27;25.34;101264.72;5113957;28;19915;-12
2022/06/18 09:53:06;;;;;;;;;;;27.00;40.90;;;31.28;25.48;101266.44;5113769;28;19922;-11
2022/06/18 09:55:46;;;;;;;;;;;27.00;40.90;;;31.29;25.53;101276.25;5113777;28;19920;-11
2022/06/18 09:58:35;;;;;;;;;;;27.10;40.90;;;31.23;25.35;101266.06;5095409;28;19923;-12
2022/06/18 10:01:01;;;;;;;;;;;27.10;40.90;;;31.24;25.54;101267.75;5095658;28;19915;-12
2022/06/18 10:09:11;;;;;;;;;;;27.10;41.00;;;31.27;25.52;101272.84;5096029;28;20037;-13
2022/06/18 10:11:38;;;;;;;;;;;27.00;40.90;;;31.27;25.44;101275.53;5113778;28;19959;-12
2022/06/18 10:14:07;;;;;;;;;;;27.10;41.00;;;31.23;25.74;101266.06;5095453;28;19919;-12
2022/06/18 10:16:58;;;;;;;;;;;27.00;40.90;;;31.26;25.80;101275.69;5095352;28;20408;-12
2022/06/18 10:19:47;;;;;;;;;;;27.00;41.00;;;31.27;25.50;101291.75;5113621;28;19922;-12
2022/06/18 10:22:43;;;;;;;;;;;27.00;40.90;;;31.27;25.52;101293.59;5095375;28;20363;-12
2022/06/18 10:25:36;;;;;;;;;;;27.00;41.00;;;31.24;25.73;101297.47;5113797;28;19915;-12
2022/06/18 10:28:17;;;;;;;;;;;27.00;41.00;;;31.17;25.65;101288.28;5093716;28;19923;-12
2022/06/18 10:31:15;;;;;;;;;;;27.00;41.00;;;31.23;25.71;101300.34;5113515;28;19916;-12
2022/06/18 10:34:14;;;;;;;;;;;27.00;41.00;;;31.21;25.50;101306.72;5085792;28;19919;-12
2022/06/18 10:36:58;;;;;;;;;;;27.00;41.00;;;31.22;25.57;101310.28;5117355;28;19958;-12
2022/06/18 10:39:56;;;;;;;;;;;27.00;41.00;;;31.20;25.68;101312.28;5117299;28;19931;-12
2022/06/18 10:42:40;;;;;;;;;;;27.00;41.00;;;31.20;25.87;101296.91;5078315;28;19919;-12
2022/06/18 10:45:29;;;;;;;;;;;27.00;41.10;;;31.19;25.74;101303.34;5117501;28;19984;-12
2022/06/18 10:47:55;;;;;;;;;;;27.00;41.10;;;31.15;25.61;101290.28;5117273;28;20014;-12
2022/06/18 10:50:22;;;;;;;;;;;27.00;41.10;;;31.13;25.70;101285.03;5116545;28;20343;-12
2022/06/18 10:53:04;;;;;;;;;;;27.00;41.10;;;31.16;25.72;101300.09;5096359;28;19916;-12
2022/06/18 10:55:30;;;;;;;;;;;27.00;41.10;;;31.13;25.80;101300.41;5098068;28;20387;-12
2022/06/18 10:58:10;;;;;;;;;;;26.90;41.00;;;31.13;25.74;101298.53;5097140;28;19916;-11